TAM100 KEWR-SBSV
Flight info
| Callsign | TAM100 |
|---|---|
| Flight time | 5h 31m |
| Altitude | 33000 |
| Route | LAURN Q419 JFK Y483 SHIPP Y487 DOGRS Y483 MARIG/M084F330 L461 BOVIC M591 BDA L576 RKDIA/M084F350 L576 CITRS/N0497F350 UL576 TRAPP UA555 ERUGA/N0492F370 UA555 BEL/N0494F360 UZ3 PIRES/N0492F370 UZ41 DORMU |
| Aircraft | B77W/H-SDE1E2E3FGHIJ2J3J4J5M1RWXY/LB1D1 |
Departure
| Time | 2026-05-06 12:54 |
|---|---|
| Airport | Newark Liberty International Airport (KEWR) |
Arrival
| Time | 2026-05-06 18:25 |
|---|---|
| Airport | Deputado Luiz Eduardo Magalhães International Airport (SBSV) |
| Time | Latitude | Longitude | Altitude | Speed | Heading |
|---|---|---|---|---|---|
| 2026-05-06 12:34 | 40.69931 | -74.17953 | 27 ft | 0 kts | 184° |
| 2026-05-06 12:41 | 40.69936 | -74.17953 | 27 ft | 2 kts | 181° |
| 2026-05-06 12:41 | 40.69953 | -74.17953 | 26 ft | 2 kts | 176° |
| 2026-05-06 12:41 | 40.69969 | -74.17955 | 25 ft | 2 kts | 166° |
| 2026-05-06 12:41 | 40.69984 | -74.17963 | 25 ft | 2 kts | 144° |
| 2026-05-06 12:42 | 40.69996 | -74.17978 | 25 ft | 2 kts | 115° |
| 2026-05-06 12:42 | 40.70001 | -74.17996 | 23 ft | 1 kts | 103° |
| 2026-05-06 12:42 | 40.70001 | -74.18001 | 23 ft | 0 kts | 103° |
| 2026-05-06 12:46 | 40.70001 | -74.17995 | 24 ft | 5 kts | 101° |
| 2026-05-06 12:46 | 40.69989 | -74.17842 | 27 ft | 29 kts | 95° |
| 2026-05-06 12:46 | 40.69970 | -74.17556 | 27 ft | 11 kts | 95° |
| 2026-05-06 12:46 | 40.69963 | -74.17458 | 27 ft | 11 kts | 95° |
| 2026-05-06 12:47 | 40.69964 | -74.17376 | 27 ft | 0 kts | 72° |
| 2026-05-06 12:47 | 40.69973 | -74.17349 | 27 ft | 9 kts | 60° |
| 2026-05-06 12:47 | 40.70026 | -74.17344 | 27 ft | 17 kts | 346° |
| 2026-05-06 12:48 | 40.70052 | -74.17347 | 27 ft | 2 kts | 13° |
| 2026-05-06 12:48 | 40.70058 | -74.17293 | 27 ft | 13 kts | 109° |
| 2026-05-06 12:48 | 40.70021 | -74.17117 | 27 ft | 9 kts | 93° |
| 2026-05-06 12:48 | 40.70018 | -74.17026 | 27 ft | 10 kts | 92° |
| 2026-05-06 12:49 | 40.70015 | -74.16929 | 27 ft | 10 kts | 93° |
| 2026-05-06 12:49 | 40.70011 | -74.16834 | 27 ft | 10 kts | 93° |
| 2026-05-06 12:49 | 40.70001 | -74.16729 | 27 ft | 13 kts | 97° |
| 2026-05-06 12:49 | 40.69989 | -74.16584 | 28 ft | 18 kts | 95° |
| 2026-05-06 12:50 | 40.69983 | -74.16482 | 25 ft | 0 kts | 95° |
| 2026-05-06 12:50 | 40.69994 | -74.16655 | 26 ft | 0 kts | 95° |
| 2026-05-06 12:50 | 40.69993 | -74.16579 | 28 ft | 18 kts | 80° |
| 2026-05-06 12:50 | 40.70096 | -74.16482 | 28 ft | 20 kts | 15° |
| 2026-05-06 12:51 | 40.70223 | -74.16461 | 29 ft | 16 kts | 7° |
| 2026-05-06 12:51 | 40.70278 | -74.16360 | 26 ft | 15 kts | 91° |
| 2026-05-06 12:51 | 40.70274 | -74.16294 | 26 ft | 0 kts | 96° |
| 2026-05-06 12:52 | 40.70273 | -74.16281 | 26 ft | 7 kts | 96° |
| 2026-05-06 12:52 | 40.70220 | -74.16245 | 29 ft | 17 kts | 194° |
| 2026-05-06 12:52 | 40.70202 | -74.16254 | 28 ft | 1 kts | 201° |
| 2026-05-06 12:52 | 40.70200 | -74.16254 | 29 ft | 0 kts | 201° |
| 2026-05-06 12:53 | 40.70020 | -74.16366 | 28 ft | 64 kts | 206° |
| 2026-05-06 12:53 | 40.69412 | -74.16753 | 28 ft | 127 kts | 206° |
| 2026-05-06 12:53 | 40.68456 | -74.17358 | 53 ft | 172 kts | 205° |
| 2026-05-06 12:53 | 40.67381 | -74.18036 | 608 ft | 174 kts | 206° |
| 2026-05-06 12:54 | 40.66215 | -74.18625 | 1081 ft | 185 kts | 191° |
| 2026-05-06 12:54 | 40.64942 | -74.18362 | 1685 ft | 194 kts | 164° |
| 2026-05-06 12:54 | 40.63704 | -74.17468 | 1983 ft | 213 kts | 159° |
| 2026-05-06 12:54 | 40.62323 | -74.16496 | 2204 ft | 231 kts | 163° |
| 2026-05-06 12:55 | 40.60854 | -74.15584 | 2691 ft | 238 kts | 167° |
| 2026-05-06 12:55 | 40.59318 | -74.14692 | 3278 ft | 245 kts | 165° |
| 2026-05-06 12:55 | 40.57754 | -74.13743 | 3919 ft | 249 kts | 161° |
| 2026-05-06 12:55 | 40.56396 | -74.12171 | 4340 ft | 275 kts | 126° |
| 2026-05-06 12:56 | 40.55855 | -74.09752 | 5126 ft | 288 kts | 96° |
| 2026-05-06 12:56 | 40.56205 | -74.07133 | 5754 ft | 296 kts | 75° |
| 2026-05-06 12:56 | 40.56854 | -74.04512 | 6256 ft | 304 kts | 75° |
| 2026-05-06 12:56 | 40.57504 | -74.01852 | 6850 ft | 308 kts | 76° |
| 2026-05-06 12:57 | 40.58179 | -73.99060 | 7444 ft | 311 kts | 76° |
| 2026-05-06 12:57 | 40.58830 | -73.96331 | 8039 ft | 315 kts | 76° |
| 2026-05-06 12:57 | 40.59476 | -73.93595 | 8636 ft | 318 kts | 77° |
| 2026-05-06 12:57 | 40.60136 | -73.90776 | 9224 ft | 322 kts | 77° |
| 2026-05-06 12:58 | 40.60799 | -73.87930 | 9815 ft | 326 kts | 77° |
| 2026-05-06 12:58 | 40.61465 | -73.85051 | 10267 ft | 334 kts | 77° |
| 2026-05-06 12:58 | 40.62150 | -73.82069 | 10426 ft | 355 kts | 77° |
| 2026-05-06 12:58 | 40.62683 | -73.78857 | 10535 ft | 364 kts | 94° |
| 2026-05-06 12:59 | 40.62232 | -73.75575 | 10672 ft | 368 kts | 120° |
| 2026-05-06 12:59 | 40.60873 | -73.72716 | 10841 ft | 371 kts | 134° |
| 2026-05-06 12:59 | 40.59275 | -73.70025 | 11287 ft | 382 kts | 134° |
| 2026-05-06 12:59 | 40.57635 | -73.67229 | 11952 ft | 389 kts | 134° |
| 2026-05-06 13:00 | 40.55981 | -73.64392 | 12794 ft | 391 kts | 134° |
| 2026-05-06 13:00 | 40.54323 | -73.61539 | 13624 ft | 395 kts | 134° |
| 2026-05-06 13:00 | 40.52639 | -73.58641 | 14312 ft | 401 kts | 133° |
| 2026-05-06 13:00 | 40.50936 | -73.55707 | 14972 ft | 406 kts | 133° |
| 2026-05-06 13:01 | 40.49208 | -73.52729 | 15687 ft | 411 kts | 133° |
| 2026-05-06 13:01 | 40.47475 | -73.49741 | 16368 ft | 416 kts | 133° |
| 2026-05-06 13:01 | 40.45705 | -73.46691 | 17042 ft | 421 kts | 133° |
| 2026-05-06 13:01 | 40.43914 | -73.43606 | 17702 ft | 427 kts | 133° |
| 2026-05-06 13:02 | 40.42095 | -73.40477 | 18346 ft | 432 kts | 133° |
| 2026-05-06 13:02 | 40.40281 | -73.37360 | 18882 ft | 437 kts | 133° |
| 2026-05-06 13:02 | 40.38417 | -73.34160 | 19439 ft | 443 kts | 132° |
| 2026-05-06 13:02 | 40.36533 | -73.30927 | 19964 ft | 448 kts | 132° |
| 2026-05-06 13:03 | 40.34624 | -73.27658 | 20478 ft | 454 kts | 132° |
| 2026-05-06 13:03 | 40.32701 | -73.24330 | 20986 ft | 460 kts | 129° |
| 2026-05-06 13:03 | 40.30936 | -73.20849 | 21485 ft | 467 kts | 126° |
| 2026-05-06 13:03 | 40.29177 | -73.17246 | 21994 ft | 472 kts | 126° |
| 2026-05-06 13:04 | 40.27384 | -73.13597 | 22501 ft | 477 kts | 126° |
| 2026-05-06 13:04 | 40.25587 | -73.09977 | 23008 ft | 481 kts | 127° |
| 2026-05-06 13:04 | 40.23721 | -73.06235 | 23508 ft | 486 kts | 126° |
| 2026-05-06 13:04 | 40.21887 | -73.02564 | 23917 ft | 491 kts | 126° |
| 2026-05-06 13:05 | 40.20010 | -72.98806 | 24356 ft | 494 kts | 126° |
| 2026-05-06 13:05 | 40.18115 | -72.95011 | 24805 ft | 497 kts | 126° |
| 2026-05-06 13:05 | 40.16212 | -72.91204 | 25269 ft | 500 kts | 126° |
| 2026-05-06 13:05 | 40.14327 | -72.87436 | 25699 ft | 503 kts | 126° |
| 2026-05-06 13:06 | 40.12398 | -72.83584 | 26102 ft | 507 kts | 126° |
| 2026-05-06 13:06 | 40.10455 | -72.79713 | 26508 ft | 511 kts | 126° |
| 2026-05-06 13:06 | 40.08535 | -72.75753 | 26908 ft | 515 kts | 124° |
| 2026-05-06 13:06 | 40.06728 | -72.71759 | 27279 ft | 519 kts | 123° |
| 2026-05-06 13:07 | 40.04920 | -72.67664 | 27653 ft | 522 kts | 123° |
| 2026-05-06 13:07 | 40.03093 | -72.63541 | 28029 ft | 525 kts | 123° |
| 2026-05-06 13:07 | 40.01235 | -72.59406 | 28360 ft | 528 kts | 123° |
| 2026-05-06 13:07 | 39.99354 | -72.55267 | 28794 ft | 529 kts | 123° |
| 2026-05-06 13:08 | 39.97464 | -72.51131 | 29132 ft | 532 kts | 123° |
| 2026-05-06 13:08 | 39.95569 | -72.46957 | 29407 ft | 536 kts | 122° |
| 2026-05-06 13:08 | 39.93714 | -72.42765 | 29667 ft | 539 kts | 122° |
| 2026-05-06 13:08 | 39.91850 | -72.38499 | 30007 ft | 541 kts | 122° |
| 2026-05-06 13:09 | 39.89989 | -72.34229 | 30384 ft | 540 kts | 122° |
| 2026-05-06 13:09 | 39.88148 | -72.30017 | 30729 ft | 540 kts | 122° |
| 2026-05-06 13:09 | 39.86278 | -72.25761 | 31037 ft | 540 kts | 122° |
| 2026-05-06 13:09 | 39.84402 | -72.21512 | 31450 ft | 538 kts | 122° |
| 2026-05-06 13:10 | 39.82552 | -72.17331 | 31795 ft | 538 kts | 122° |
| 2026-05-06 13:10 | 39.80667 | -72.13082 | 32031 ft | 540 kts | 122° |
| 2026-05-06 13:10 | 39.78798 | -72.08870 | 32292 ft | 541 kts | 122° |
| 2026-05-06 13:10 | 39.76911 | -72.04621 | 32566 ft | 542 kts | 122° |
| 2026-05-06 13:11 | 39.75023 | -72.00377 | 32855 ft | 542 kts | 122° |
| 2026-05-06 13:11 | 39.73117 | -71.96137 | 33014 ft | 545 kts | 123° |
| 2026-05-06 13:11 | 39.71185 | -71.91954 | 33043 ft | 546 kts | 123° |
| 2026-05-06 13:12 | 39.67239 | -71.83550 | 33037 ft | 540 kts | 123° |
| 2026-05-06 13:12 | 39.63341 | -71.75254 | 33051 ft | 540 kts | 123° |
| 2026-05-06 13:13 | 39.59431 | -71.66909 | 33068 ft | 541 kts | 123° |
| 2026-05-06 13:13 | 39.56182 | -71.59980 | 33067 ft | 541 kts | 123° |
| 2026-05-06 13:14 | 39.51615 | -71.50269 | 33081 ft | 541 kts | 123° |
| 2026-05-06 13:14 | 39.48340 | -71.43322 | 33075 ft | 541 kts | 123° |
| 2026-05-06 13:15 | 39.44371 | -71.35080 | 33066 ft | 540 kts | 127° |
| 2026-05-06 13:15 | 39.38705 | -71.26551 | 33078 ft | 533 kts | 141° |
| 2026-05-06 13:16 | 39.34081 | -71.21261 | 33075 ft | 532 kts | 142° |
| 2026-05-06 13:16 | 39.28515 | -71.14913 | 33103 ft | 534 kts | 141° |
| 2026-05-06 13:17 | 39.22964 | -71.08518 | 33109 ft | 535 kts | 141° |
| 2026-05-06 13:17 | 39.17431 | -71.02117 | 33105 ft | 536 kts | 141° |
| 2026-05-06 13:18 | 39.11892 | -70.95722 | 33089 ft | 537 kts | 141° |
| 2026-05-06 13:18 | 39.06326 | -70.89313 | 33110 ft | 537 kts | 141° |
| 2026-05-06 13:19 | 39.00749 | -70.82911 | 33120 ft | 536 kts | 141° |
| 2026-05-06 13:19 | 38.95188 | -70.76540 | 33109 ft | 536 kts | 141° |
| 2026-05-06 13:20 | 38.89644 | -70.70203 | 33110 ft | 535 kts | 141° |
| 2026-05-06 13:20 | 38.84076 | -70.63852 | 33117 ft | 534 kts | 141° |
| 2026-05-06 13:21 | 38.78512 | -70.57520 | 33130 ft | 534 kts | 141° |
| 2026-05-06 13:21 | 38.69607 | -70.47413 | 33114 ft | 535 kts | 141° |
| 2026-05-06 13:22 | 38.58419 | -70.34766 | 33150 ft | 535 kts | 141° |
| 2026-05-06 13:22 | 38.47308 | -70.22257 | 33147 ft | 536 kts | 140° |
| 2026-05-06 13:23 | 38.36109 | -70.09701 | 33162 ft | 536 kts | 140° |
| 2026-05-06 13:23 | 38.24664 | -69.97401 | 33149 ft | 536 kts | 143° |
| 2026-05-06 13:24 | 38.13101 | -69.85541 | 33163 ft | 537 kts | 142° |
| 2026-05-06 13:24 | 38.01480 | -69.73521 | 33162 ft | 538 kts | 142° |
| 2026-05-06 13:25 | 37.89895 | -69.61594 | 33177 ft | 538 kts | 142° |
| 2026-05-06 13:25 | 37.78241 | -69.49646 | 33197 ft | 538 kts | 142° |
| 2026-05-06 13:26 | 37.66568 | -69.37733 | 33180 ft | 538 kts | 142° |
| 2026-05-06 13:26 | 37.54912 | -69.25884 | 33197 ft | 538 kts | 142° |
| 2026-05-06 13:27 | 37.43229 | -69.14056 | 33195 ft | 537 kts | 142° |
| 2026-05-06 13:27 | 37.31628 | -69.02357 | 33199 ft | 537 kts | 142° |
| 2026-05-06 13:28 | 37.19950 | -68.90640 | 33205 ft | 536 kts | 142° |
| 2026-05-06 13:28 | 37.08364 | -68.79071 | 33200 ft | 535 kts | 142° |
| 2026-05-06 13:29 | 36.96713 | -68.67479 | 33218 ft | 534 kts | 142° |
| 2026-05-06 13:29 | 36.85110 | -68.55982 | 33210 ft | 533 kts | 142° |
| 2026-05-06 13:30 | 36.73462 | -68.44484 | 33226 ft | 533 kts | 142° |
| 2026-05-06 13:30 | 36.61793 | -68.33010 | 33216 ft | 533 kts | 142° |
| 2026-05-06 13:31 | 36.50190 | -68.21656 | 33231 ft | 533 kts | 142° |
| 2026-05-06 13:31 | 36.38497 | -68.10267 | 33229 ft | 534 kts | 142° |
| 2026-05-06 13:32 | 36.26777 | -67.98891 | 33228 ft | 534 kts | 142° |
| 2026-05-06 13:32 | 36.15058 | -67.87560 | 33722 ft | 541 kts | 142° |
| 2026-05-06 13:32 | 36.11899 | -67.84513 | 33971 ft | 541 kts | 142° |
| 2026-05-06 13:33 | 36.08926 | -67.81649 | 34209 ft | 542 kts | 142° |
| 2026-05-06 13:33 | 36.05942 | -67.78777 | 34397 ft | 543 kts | 142° |
| 2026-05-06 13:33 | 36.02959 | -67.75909 | 34579 ft | 544 kts | 142° |
| 2026-05-06 13:33 | 35.99989 | -67.73055 | 34790 ft | 543 kts | 142° |
| 2026-05-06 13:34 | 35.97022 | -67.70208 | 35007 ft | 543 kts | 142° |
| 2026-05-06 13:34 | 35.94031 | -67.67340 | 35154 ft | 545 kts | 142° |
| 2026-05-06 13:34 | 35.89450 | -67.62953 | 35239 ft | 549 kts | 142° |
| 2026-05-06 13:35 | 35.77612 | -67.51648 | 35239 ft | 550 kts | 142° |
| 2026-05-06 13:35 | 35.65648 | -67.40267 | 35224 ft | 541 kts | 142° |
| 2026-05-06 13:36 | 35.53758 | -67.28999 | 35236 ft | 536 kts | 142° |
| 2026-05-06 13:36 | 35.42004 | -67.17904 | 35240 ft | 543 kts | 142° |
| 2026-05-06 13:37 | 35.31206 | -67.07747 | 35246 ft | 548 kts | 142° |
| 2026-05-06 13:37 | 35.19128 | -66.96428 | 35225 ft | 550 kts | 142° |
| 2026-05-06 13:38 | 35.07031 | -66.85134 | 35238 ft | 543 kts | 142° |
| 2026-05-06 13:38 | 34.95144 | -66.74077 | 35222 ft | 530 kts | 142° |
| 2026-05-06 13:39 | 34.83374 | -66.63503 | 35226 ft | 528 kts | 146° |
| 2026-05-06 13:39 | 34.71021 | -66.53530 | 35245 ft | 536 kts | 146° |
| 2026-05-06 13:40 | 34.58583 | -66.43449 | 35229 ft | 539 kts | 146° |
| 2026-05-06 13:40 | 34.46131 | -66.33373 | 35226 ft | 540 kts | 146° |
| 2026-05-06 13:41 | 34.33584 | -66.23263 | 35224 ft | 539 kts | 146° |
| 2026-05-06 13:41 | 34.21188 | -66.13311 | 35202 ft | 530 kts | 146° |
| 2026-05-06 13:42 | 34.09032 | -66.03586 | 35212 ft | 524 kts | 146° |
| 2026-05-06 13:42 | 33.96769 | -65.93810 | 35228 ft | 533 kts | 146° |
| 2026-05-06 13:43 | 33.84303 | -65.83906 | 35228 ft | 537 kts | 146° |
| 2026-05-06 13:43 | 33.71888 | -65.74079 | 35186 ft | 530 kts | 146° |
| 2026-05-06 13:44 | 33.59676 | -65.64446 | 35200 ft | 526 kts | 147° |
| 2026-05-06 13:44 | 33.47474 | -65.54853 | 35201 ft | 523 kts | 147° |
| 2026-05-06 13:45 | 33.35278 | -65.45299 | 35196 ft | 521 kts | 147° |
| 2026-05-06 13:45 | 33.17143 | -65.31151 | 35180 ft | 520 kts | 147° |
| 2026-05-06 13:46 | 33.04977 | -65.21699 | 35189 ft | 521 kts | 147° |
| 2026-05-06 13:46 | 32.92817 | -65.12285 | 35191 ft | 521 kts | 147° |
| 2026-05-06 13:47 | 32.80706 | -65.02938 | 35185 ft | 522 kts | 148° |
| 2026-05-06 13:47 | 32.68495 | -64.93545 | 35180 ft | 522 kts | 148° |
| 2026-05-06 13:48 | 32.56250 | -64.84158 | 35155 ft | 522 kts | 148° |
| 2026-05-06 13:48 | 32.44096 | -64.74868 | 35173 ft | 521 kts | 148° |
| 2026-05-06 13:49 | 32.31730 | -64.65970 | 35132 ft | 519 kts | 154° |
| 2026-05-06 13:49 | 32.20725 | -64.59193 | 35058 ft | 520 kts | 154° |
| 2026-05-06 13:50 | 32.12084 | -64.53835 | 35156 ft | 519 kts | 154° |
| 2026-05-06 13:50 | 31.99280 | -64.45871 | 35146 ft | 520 kts | 154° |
| 2026-05-06 13:51 | 31.88487 | -64.39183 | 35167 ft | 520 kts | 154° |
| 2026-05-06 13:51 | 31.75629 | -64.31239 | 35175 ft | 520 kts | 154° |
| 2026-05-06 13:52 | 31.62881 | -64.23387 | 35188 ft | 517 kts | 155° |
| 2026-05-06 13:52 | 31.50142 | -64.15567 | 35194 ft | 515 kts | 155° |
| 2026-05-06 13:53 | 31.39932 | -64.09315 | 35179 ft | 514 kts | 155° |
| 2026-05-06 13:53 | 31.27256 | -64.01576 | 35167 ft | 512 kts | 155° |
| 2026-05-06 13:54 | 31.14716 | -63.93943 | 35147 ft | 509 kts | 156° |
| 2026-05-06 13:54 | 31.03599 | -63.87195 | 35122 ft | 507 kts | 156° |
| 2026-05-06 13:55 | 30.92505 | -63.80480 | 35149 ft | 505 kts | 156° |
| 2026-05-06 13:55 | 30.80106 | -63.72994 | 35184 ft | 503 kts | 156° |
| 2026-05-06 13:56 | 30.67685 | -63.65518 | 35172 ft | 502 kts | 157° |
| 2026-05-06 13:56 | 30.55271 | -63.58068 | 35164 ft | 501 kts | 157° |
| 2026-05-06 13:57 | 30.42868 | -63.50645 | 35166 ft | 501 kts | 157° |
| 2026-05-06 13:57 | 30.30455 | -63.43239 | 35152 ft | 500 kts | 157° |
| 2026-05-06 13:58 | 30.18110 | -63.35892 | 35162 ft | 497 kts | 158° |
| 2026-05-06 13:58 | 30.05862 | -63.28625 | 35163 ft | 495 kts | 158° |
| 2026-05-06 13:59 | 29.93579 | -63.21357 | 35148 ft | 494 kts | 158° |
| 2026-05-06 13:59 | 29.81417 | -63.14180 | 35164 ft | 493 kts | 158° |
| 2026-05-06 14:00 | 29.69168 | -63.07102 | 35150 ft | 487 kts | 163° |
| 2026-05-06 14:00 | 29.56530 | -63.02255 | 35168 ft | 479 kts | 168° |
| 2026-05-06 14:01 | 29.43872 | -62.97475 | 35168 ft | 478 kts | 167° |
| 2026-05-06 14:01 | 29.33346 | -62.93468 | 35172 ft | 477 kts | 167° |
| 2026-05-06 14:02 | 29.20774 | -62.88699 | 35170 ft | 477 kts | 167° |
| 2026-05-06 14:02 | 29.06061 | -62.83133 | 35180 ft | 478 kts | 167° |
| 2026-05-06 14:03 | 28.93401 | -62.78357 | 35173 ft | 478 kts | 167° |
| 2026-05-06 14:03 | 28.82860 | -62.74390 | 35146 ft | 478 kts | 168° |
| 2026-05-06 14:04 | 28.70222 | -62.69644 | 35186 ft | 476 kts | 168° |
| 2026-05-06 14:04 | 28.57673 | -62.64945 | 35140 ft | 477 kts | 168° |
| 2026-05-06 14:05 | 28.45063 | -62.60233 | 35173 ft | 475 kts | 168° |
| 2026-05-06 14:05 | 28.32546 | -62.55569 | 35171 ft | 475 kts | 168° |
| 2026-05-06 14:06 | 28.20008 | -62.50908 | 35170 ft | 472 kts | 168° |
| 2026-05-06 14:06 | 28.07547 | -62.46287 | 35167 ft | 469 kts | 168° |
| 2026-05-06 14:07 | 27.95241 | -62.41735 | 35149 ft | 466 kts | 168° |
| 2026-05-06 14:07 | 27.82917 | -62.37188 | 35173 ft | 464 kts | 168° |
| 2026-05-06 14:08 | 27.70693 | -62.32689 | 35172 ft | 464 kts | 168° |
| 2026-05-06 14:08 | 27.58377 | -62.28166 | 35180 ft | 464 kts | 168° |
| 2026-05-06 14:09 | 27.46059 | -62.23653 | 35180 ft | 465 kts | 168° |
| 2026-05-06 14:09 | 27.33816 | -62.19178 | 35165 ft | 465 kts | 167° |
| 2026-05-06 14:10 | 27.21477 | -62.14678 | 35188 ft | 467 kts | 167° |
| 2026-05-06 14:10 | 27.09129 | -62.10187 | 35156 ft | 469 kts | 167° |
| 2026-05-06 14:11 | 26.96647 | -62.05655 | 35200 ft | 473 kts | 167° |
| 2026-05-06 14:11 | 26.84037 | -62.01089 | 35165 ft | 476 kts | 167° |
| 2026-05-06 14:12 | 26.71444 | -61.96539 | 35188 ft | 478 kts | 167° |
| 2026-05-06 14:12 | 26.58718 | -61.91951 | 35177 ft | 480 kts | 167° |
| 2026-05-06 14:13 | 26.46062 | -61.87399 | 35183 ft | 480 kts | 167° |
| 2026-05-06 14:13 | 26.33398 | -61.82856 | 35182 ft | 479 kts | 167° |
| 2026-05-06 14:14 | 26.20639 | -61.78289 | 35137 ft | 479 kts | 167° |
| 2026-05-06 14:14 | 26.10327 | -61.74605 | 35172 ft | 478 kts | 167° |
| 2026-05-06 14:15 | 25.97720 | -61.70111 | 35193 ft | 478 kts | 167° |
| 2026-05-06 14:15 | 25.85006 | -61.65590 | 35182 ft | 480 kts | 167° |
| 2026-05-06 14:16 | 25.72268 | -61.61070 | 35186 ft | 481 kts | 167° |
| 2026-05-06 14:16 | 25.59534 | -61.56561 | 35192 ft | 482 kts | 167° |
| 2026-05-06 14:17 | 25.46729 | -61.52038 | 35190 ft | 483 kts | 167° |
| 2026-05-06 14:17 | 25.33967 | -61.47539 | 35178 ft | 484 kts | 167° |
| 2026-05-06 14:18 | 25.21123 | -61.43022 | 35195 ft | 483 kts | 167° |
| 2026-05-06 14:18 | 25.08279 | -61.38515 | 35186 ft | 484 kts | 167° |
| 2026-05-06 14:19 | 24.95438 | -61.34018 | 35182 ft | 484 kts | 167° |
| 2026-05-06 14:19 | 24.82678 | -61.29559 | 35173 ft | 482 kts | 167° |
| 2026-05-06 14:20 | 24.72077 | -61.25863 | 35197 ft | 479 kts | 167° |
| 2026-05-06 14:20 | 24.60754 | -61.21922 | 35201 ft | 478 kts | 167° |
| 2026-05-06 14:21 | 24.48057 | -61.17512 | 35175 ft | 477 kts | 167° |
| 2026-05-06 14:21 | 24.35404 | -61.13126 | 35195 ft | 475 kts | 167° |
| 2026-05-06 14:22 | 24.22863 | -61.08789 | 35202 ft | 475 kts | 167° |
| 2026-05-06 14:22 | 24.10205 | -61.04420 | 35207 ft | 474 kts | 167° |
| 2026-05-06 14:23 | 23.97704 | -61.00113 | 35199 ft | 473 kts | 168° |
| 2026-05-06 14:23 | 23.85109 | -60.95784 | 35173 ft | 472 kts | 168° |
| 2026-05-06 14:24 | 23.72549 | -60.91475 | 35185 ft | 471 kts | 168° |
| 2026-05-06 14:24 | 23.60108 | -60.87216 | 35192 ft | 471 kts | 168° |
| 2026-05-06 14:25 | 23.47576 | -60.82934 | 35204 ft | 471 kts | 168° |
| 2026-05-06 14:25 | 23.35025 | -60.78655 | 35200 ft | 472 kts | 168° |
| 2026-05-06 14:26 | 23.22556 | -60.74411 | 35182 ft | 472 kts | 168° |
| 2026-05-06 14:26 | 23.10012 | -60.70150 | 35199 ft | 472 kts | 168° |
| 2026-05-06 14:27 | 22.97489 | -60.65905 | 35177 ft | 473 kts | 168° |
| 2026-05-06 14:27 | 22.84905 | -60.61647 | 35203 ft | 473 kts | 168° |
| 2026-05-06 14:28 | 22.72312 | -60.57395 | 35195 ft | 473 kts | 168° |
| 2026-05-06 14:28 | 22.61830 | -60.53861 | 35194 ft | 473 kts | 168° |
| 2026-05-06 14:29 | 22.47205 | -60.48941 | 35197 ft | 473 kts | 168° |
| 2026-05-06 14:29 | 22.34609 | -60.44712 | 35172 ft | 473 kts | 168° |
| 2026-05-06 14:30 | 22.22056 | -60.40504 | 35201 ft | 472 kts | 168° |
| 2026-05-06 14:30 | 22.09562 | -60.36326 | 35193 ft | 472 kts | 168° |
| 2026-05-06 14:31 | 21.97000 | -60.32132 | 35195 ft | 472 kts | 168° |
| 2026-05-06 14:31 | 21.84481 | -60.27960 | 35189 ft | 472 kts | 168° |
| 2026-05-06 14:32 | 21.71913 | -60.23779 | 35190 ft | 472 kts | 168° |
| 2026-05-06 14:32 | 21.59354 | -60.19609 | 35187 ft | 472 kts | 168° |
| 2026-05-06 14:33 | 21.46737 | -60.15427 | 35186 ft | 472 kts | 168° |
| 2026-05-06 14:33 | 21.34248 | -60.11296 | 35183 ft | 472 kts | 168° |
| 2026-05-06 14:34 | 21.21655 | -60.07137 | 35184 ft | 473 kts | 168° |
| 2026-05-06 14:34 | 21.09072 | -60.02988 | 35176 ft | 473 kts | 168° |
| 2026-05-06 14:35 | 20.96463 | -59.98821 | 35183 ft | 474 kts | 167° |
| 2026-05-06 14:35 | 20.83962 | -59.94563 | 35162 ft | 475 kts | 167° |
| 2026-05-06 14:36 | 20.71345 | -59.90279 | 35181 ft | 475 kts | 167° |
| 2026-05-06 14:36 | 20.58720 | -59.86008 | 35179 ft | 476 kts | 167° |
| 2026-05-06 14:37 | 20.46050 | -59.81728 | 35173 ft | 477 kts | 166° |
| 2026-05-06 14:37 | 20.33448 | -59.77478 | 35179 ft | 477 kts | 166° |
| 2026-05-06 14:38 | 20.20757 | -59.73206 | 35159 ft | 478 kts | 166° |
| 2026-05-06 14:38 | 20.08027 | -59.68928 | 35169 ft | 478 kts | 166° |
| 2026-05-06 14:39 | 19.95365 | -59.64680 | 35173 ft | 479 kts | 166° |
| 2026-05-06 14:39 | 19.82610 | -59.60408 | 35172 ft | 479 kts | 166° |
| 2026-05-06 14:40 | 19.69946 | -59.56173 | 35169 ft | 480 kts | 166° |
| 2026-05-06 14:40 | 19.57194 | -59.51916 | 35155 ft | 480 kts | 166° |
| 2026-05-06 14:41 | 19.44415 | -59.47657 | 35164 ft | 480 kts | 166° |
| 2026-05-06 14:41 | 19.31727 | -59.43436 | 35162 ft | 481 kts | 166° |
| 2026-05-06 14:42 | 19.18888 | -59.39171 | 35156 ft | 481 kts | 166° |
| 2026-05-06 14:42 | 19.07225 | -59.35303 | 35183 ft | 481 kts | 166° |
| 2026-05-06 14:43 | 18.97362 | -59.32037 | 35148 ft | 483 kts | 166° |
| 2026-05-06 14:43 | 18.90973 | -59.29923 | 35407 ft | 483 kts | 165° |
| 2026-05-06 14:44 | 18.87805 | -59.28875 | 35554 ft | 483 kts | 165° |
| 2026-05-06 14:44 | 18.84585 | -59.27811 | 35679 ft | 484 kts | 166° |
| 2026-05-06 14:44 | 18.81367 | -59.26748 | 35783 ft | 485 kts | 166° |
| 2026-05-06 14:45 | 18.74914 | -59.24618 | 35998 ft | 487 kts | 166° |
| 2026-05-06 14:45 | 18.64867 | -59.21304 | 36087 ft | 493 kts | 166° |
| 2026-05-06 14:46 | 18.53619 | -59.17598 | 36111 ft | 494 kts | 166° |
| 2026-05-06 14:46 | 18.44236 | -59.14510 | 36141 ft | 493 kts | 166° |
| 2026-05-06 14:47 | 18.32766 | -59.10741 | 36147 ft | 493 kts | 165° |
| 2026-05-06 14:47 | 18.21413 | -59.07015 | 36170 ft | 491 kts | 165° |
| 2026-05-06 14:48 | 18.09263 | -59.03033 | 36266 ft | 488 kts | 165° |
| 2026-05-06 14:48 | 18.01693 | -59.00556 | 36147 ft | 491 kts | 165° |
| 2026-05-06 14:49 | 17.88706 | -58.96059 | 36142 ft | 491 kts | 164° |
| 2026-05-06 14:49 | 17.75827 | -58.91488 | 36148 ft | 490 kts | 164° |
| 2026-05-06 14:50 | 17.62874 | -58.86937 | 36140 ft | 490 kts | 164° |
| 2026-05-06 14:50 | 17.52089 | -58.83153 | 36146 ft | 491 kts | 164° |
| 2026-05-06 14:51 | 17.39119 | -58.78607 | 36135 ft | 491 kts | 164° |
| 2026-05-06 14:51 | 17.26181 | -58.74079 | 36145 ft | 492 kts | 164° |
| 2026-05-06 14:52 | 17.13165 | -58.69530 | 36143 ft | 493 kts | 164° |
| 2026-05-06 14:52 | 17.00132 | -58.64983 | 36138 ft | 494 kts | 163° |
| 2026-05-06 14:53 | 16.87089 | -58.60439 | 36137 ft | 494 kts | 163° |
| 2026-05-06 14:53 | 16.74022 | -58.55892 | 36128 ft | 495 kts | 163° |
| 2026-05-06 14:54 | 16.61021 | -58.51376 | 36140 ft | 495 kts | 163° |
| 2026-05-06 14:54 | 16.47895 | -58.46822 | 36131 ft | 496 kts | 163° |
| 2026-05-06 14:55 | 16.34861 | -58.42307 | 36131 ft | 496 kts | 163° |
| 2026-05-06 14:55 | 16.21705 | -58.37756 | 36129 ft | 497 kts | 163° |
| 2026-05-06 14:56 | 16.08639 | -58.33243 | 36122 ft | 497 kts | 163° |
| 2026-05-06 14:56 | 15.95492 | -58.28707 | 36128 ft | 497 kts | 163° |
| 2026-05-06 14:57 | 15.82402 | -58.24197 | 36125 ft | 497 kts | 163° |
| 2026-05-06 14:57 | 15.69355 | -58.19707 | 36107 ft | 489 kts | 163° |
| 2026-05-06 14:58 | 15.56507 | -58.15296 | 36112 ft | 482 kts | 163° |
| 2026-05-06 14:58 | 15.43816 | -58.10948 | 36114 ft | 479 kts | 163° |
| 2026-05-06 14:59 | 15.31044 | -58.06576 | 36125 ft | 488 kts | 163° |
| 2026-05-06 14:59 | 15.18125 | -58.02159 | 36115 ft | 495 kts | 163° |
| 2026-05-06 15:00 | 15.05047 | -57.97692 | 36107 ft | 492 kts | 163° |
| 2026-05-06 15:00 | 14.92098 | -57.93275 | 36114 ft | 484 kts | 163° |
| 2026-05-06 15:01 | 14.79417 | -57.88957 | 36103 ft | 481 kts | 163° |
| 2026-05-06 15:01 | 14.68876 | -57.85372 | 36113 ft | 489 kts | 163° |
| 2026-05-06 15:02 | 14.55796 | -57.80927 | 36122 ft | 497 kts | 163° |
| 2026-05-06 15:02 | 14.42699 | -57.76480 | 36098 ft | 491 kts | 163° |
| 2026-05-06 15:03 | 14.29863 | -57.72128 | 36101 ft | 483 kts | 164° |
| 2026-05-06 15:03 | 14.17074 | -57.67799 | 36132 ft | 484 kts | 164° |
| 2026-05-06 15:04 | 14.04096 | -57.63412 | 36076 ft | 495 kts | 163° |
| 2026-05-06 15:04 | 13.92234 | -57.59403 | 36115 ft | 491 kts | 163° |
| 2026-05-06 15:05 | 13.79436 | -57.55084 | 36093 ft | 482 kts | 163° |
| 2026-05-06 15:05 | 13.66650 | -57.50776 | 36111 ft | 485 kts | 164° |
| 2026-05-06 15:06 | 13.53734 | -57.46428 | 36104 ft | 494 kts | 163° |
| 2026-05-06 15:06 | 13.40558 | -57.41996 | 36109 ft | 497 kts | 163° |
| 2026-05-06 15:07 | 13.27560 | -57.37630 | 36088 ft | 489 kts | 164° |
| 2026-05-06 15:07 | 13.14698 | -57.33314 | 36089 ft | 481 kts | 163° |
| 2026-05-06 15:08 | 13.01945 | -57.29051 | 36110 ft | 487 kts | 163° |
| 2026-05-06 15:08 | 12.89003 | -57.24758 | 36103 ft | 494 kts | 163° |
| 2026-05-06 15:09 | 12.75835 | -57.20388 | 36088 ft | 497 kts | 163° |
| 2026-05-06 15:09 | 12.62767 | -57.16055 | 36091 ft | 489 kts | 163° |
| 2026-05-06 15:10 | 12.49882 | -57.11789 | 36090 ft | 482 kts | 163° |
| 2026-05-06 15:10 | 12.37065 | -57.07551 | 36104 ft | 487 kts | 163° |
| 2026-05-06 15:11 | 12.24101 | -57.03268 | 36097 ft | 496 kts | 163° |
| 2026-05-06 15:11 | 12.10904 | -56.98911 | 36084 ft | 496 kts | 163° |
| 2026-05-06 15:12 | 11.97826 | -56.94597 | 36070 ft | 488 kts | 163° |
| 2026-05-06 15:12 | 11.85046 | -56.90388 | 36083 ft | 483 kts | 163° |
| 2026-05-06 15:13 | 11.72135 | -56.86140 | 36089 ft | 491 kts | 163° |
| 2026-05-06 15:13 | 11.59064 | -56.81842 | 36093 ft | 498 kts | 163° |
| 2026-05-06 15:14 | 11.45885 | -56.77513 | 36067 ft | 493 kts | 163° |
| 2026-05-06 15:14 | 11.33032 | -56.73295 | 36069 ft | 484 kts | 163° |
| 2026-05-06 15:15 | 11.20247 | -56.69105 | 36084 ft | 482 kts | 164° |
| 2026-05-06 15:15 | 11.07415 | -56.64905 | 36091 ft | 490 kts | 163° |
| 2026-05-06 15:16 | 10.94370 | -56.60636 | 36078 ft | 492 kts | 164° |
| 2026-05-06 15:16 | 10.81419 | -56.56402 | 36063 ft | 482 kts | 163° |
| 2026-05-06 15:17 | 10.68807 | -56.52279 | 36069 ft | 477 kts | 164° |
| 2026-05-06 15:17 | 10.56113 | -56.48047 | 36081 ft | 484 kts | 163° |
| 2026-05-06 15:18 | 10.43188 | -56.43738 | 36081 ft | 491 kts | 164° |
| 2026-05-06 15:18 | 10.30265 | -56.39438 | 36066 ft | 489 kts | 164° |
| 2026-05-06 15:19 | 10.17410 | -56.35164 | 36056 ft | 481 kts | 163° |
| 2026-05-06 15:19 | 10.04791 | -56.30973 | 36069 ft | 478 kts | 164° |
| 2026-05-06 15:20 | 9.92007 | -56.26733 | 36079 ft | 487 kts | 164° |
| 2026-05-06 15:20 | 9.79018 | -56.22426 | 36073 ft | 494 kts | 164° |
| 2026-05-06 15:21 | 9.65970 | -56.18101 | 36052 ft | 490 kts | 164° |
| 2026-05-06 15:21 | 9.53205 | -56.13874 | 36055 ft | 481 kts | 164° |
| 2026-05-06 15:22 | 9.40516 | -56.09678 | 36067 ft | 480 kts | 164° |
| 2026-05-06 15:22 | 9.27687 | -56.05439 | 36081 ft | 488 kts | 164° |
| 2026-05-06 15:23 | 9.14693 | -56.01146 | 36068 ft | 494 kts | 164° |
| 2026-05-06 15:23 | 9.08386 | -55.98350 | 36060 ft | 495 kts | 152° |
| 2026-05-06 15:23 | 9.02825 | -55.94391 | 36052 ft | 495 kts | 142° |
| 2026-05-06 15:24 | 8.92458 | -55.85354 | 36052 ft | 487 kts | 142° |
| 2026-05-06 15:24 | 8.82202 | -55.76519 | 36061 ft | 487 kts | 142° |
| 2026-05-06 15:25 | 8.71745 | -55.67560 | 36059 ft | 496 kts | 142° |
| 2026-05-06 15:25 | 8.61159 | -55.58485 | 36064 ft | 500 kts | 142° |
| 2026-05-06 15:26 | 8.50612 | -55.49455 | 36046 ft | 492 kts | 142° |
| 2026-05-06 15:26 | 8.40300 | -55.40631 | 36046 ft | 484 kts | 142° |
| 2026-05-06 15:27 | 8.30006 | -55.31831 | 36078 ft | 487 kts | 142° |
| 2026-05-06 15:27 | 8.19553 | -55.22902 | 36059 ft | 495 kts | 142° |
| 2026-05-06 15:28 | 8.09037 | -55.13922 | 36045 ft | 494 kts | 142° |
| 2026-05-06 15:28 | 7.98616 | -55.05029 | 36046 ft | 487 kts | 142° |
| 2026-05-06 15:29 | 7.88304 | -54.96238 | 36044 ft | 484 kts | 142° |
| 2026-05-06 15:29 | 7.77939 | -54.87408 | 36051 ft | 492 kts | 142° |
| 2026-05-06 15:30 | 7.67458 | -54.78483 | 36056 ft | 499 kts | 142° |
| 2026-05-06 15:30 | 7.56808 | -54.69419 | 36046 ft | 499 kts | 141° |
| 2026-05-06 15:31 | 7.46283 | -54.60469 | 36038 ft | 490 kts | 141° |
| 2026-05-06 15:31 | 7.35988 | -54.51721 | 36045 ft | 483 kts | 141° |
| 2026-05-06 15:32 | 7.20599 | -54.38656 | 36048 ft | 487 kts | 141° |
| 2026-05-06 15:32 | 7.10110 | -54.29757 | 36028 ft | 495 kts | 142° |
| 2026-05-06 15:33 | 6.99549 | -54.20800 | 36028 ft | 494 kts | 142° |
| 2026-05-06 15:33 | 6.89180 | -54.12012 | 36030 ft | 487 kts | 142° |
| 2026-05-06 15:34 | 6.78851 | -54.03263 | 36035 ft | 482 kts | 142° |
| 2026-05-06 15:34 | 6.68515 | -53.94515 | 36066 ft | 489 kts | 141° |
| 2026-05-06 15:35 | 6.57993 | -53.85609 | 36044 ft | 496 kts | 141° |
| 2026-05-06 15:35 | 6.47475 | -53.76710 | 36028 ft | 495 kts | 142° |
| 2026-05-06 15:36 | 6.37067 | -53.67906 | 36022 ft | 483 kts | 142° |
| 2026-05-06 15:36 | 6.26850 | -53.59273 | 36043 ft | 479 kts | 142° |
| 2026-05-06 15:37 | 6.16531 | -53.50558 | 36062 ft | 489 kts | 142° |
| 2026-05-06 15:37 | 6.06025 | -53.41690 | 36031 ft | 496 kts | 142° |
| 2026-05-06 15:38 | 5.95537 | -53.32836 | 36023 ft | 492 kts | 142° |
| 2026-05-06 15:38 | 5.85151 | -53.24077 | 36039 ft | 484 kts | 142° |
| 2026-05-06 15:39 | 5.76600 | -53.16870 | 36024 ft | 480 kts | 142° |
| 2026-05-06 15:39 | 5.66325 | -53.08214 | 36057 ft | 485 kts | 141° |
| 2026-05-06 15:40 | 5.55850 | -52.99392 | 36060 ft | 494 kts | 142° |
| 2026-05-06 15:41 | 5.33529 | -52.80605 | 36024 ft | 480 kts | 141° |
| 2026-05-06 15:41 | 5.23325 | -52.72024 | 36029 ft | 476 kts | 141° |
| 2026-05-06 15:42 | 5.13090 | -52.63422 | 36029 ft | 484 kts | 141° |
| 2026-05-06 15:42 | 5.02704 | -52.54695 | 36025 ft | 488 kts | 142° |
| 2026-05-06 15:43 | 4.92416 | -52.46051 | 36017 ft | 482 kts | 141° |
| 2026-05-06 15:43 | 4.82170 | -52.37479 | 36007 ft | 474 kts | 143° |
| 2026-05-06 15:44 | 4.71020 | -52.30566 | 36030 ft | 471 kts | 151° |
| 2026-05-06 15:44 | 4.61543 | -52.24958 | 36037 ft | 479 kts | 150° |
| 2026-05-06 15:45 | 4.48094 | -52.16930 | 36026 ft | 485 kts | 150° |
| 2026-05-06 15:45 | 4.38441 | -52.11172 | 36014 ft | 483 kts | 150° |
| 2026-05-06 15:46 | 4.27014 | -52.04357 | 36017 ft | 472 kts | 150° |
| 2026-05-06 15:46 | 4.15765 | -51.97671 | 36014 ft | 469 kts | 149° |
| 2026-05-06 15:47 | 4.04490 | -51.90978 | 36037 ft | 479 kts | 149° |
| 2026-05-06 15:47 | 3.92887 | -51.84089 | 36053 ft | 486 kts | 149° |
| 2026-05-06 15:48 | 3.81352 | -51.77108 | 36035 ft | 480 kts | 147° |
| 2026-05-06 15:48 | 3.70302 | -51.69860 | 36036 ft | 473 kts | 147° |
| 2026-05-06 15:49 | 3.59315 | -51.62732 | 36020 ft | 472 kts | 147° |
| 2026-05-06 15:49 | 3.48158 | -51.55518 | 36034 ft | 484 kts | 147° |
| 2026-05-06 15:50 | 3.38770 | -51.49446 | 36107 ft | 486 kts | 147° |
| 2026-05-06 15:50 | 3.29558 | -51.43490 | 36041 ft | 473 kts | 147° |
| 2026-05-06 15:51 | 3.18548 | -51.36372 | 36049 ft | 476 kts | 147° |
| 2026-05-06 15:51 | 3.07267 | -51.29081 | 36022 ft | 487 kts | 147° |
| 2026-05-06 15:52 | 2.95820 | -51.21686 | 36016 ft | 487 kts | 147° |
| 2026-05-06 15:52 | 2.84562 | -51.14414 | 36010 ft | 477 kts | 147° |
| 2026-05-06 15:53 | 2.73546 | -51.07299 | 36015 ft | 473 kts | 147° |
| 2026-05-06 15:53 | 2.62395 | -51.00100 | 36026 ft | 482 kts | 147° |
| 2026-05-06 15:54 | 2.51001 | -50.92745 | 36008 ft | 490 kts | 147° |
| 2026-05-06 15:54 | 2.41096 | -50.86349 | 36044 ft | 488 kts | 147° |
| 2026-05-06 15:55 | 2.31891 | -50.80412 | 36015 ft | 474 kts | 147° |
| 2026-05-06 15:55 | 2.20833 | -50.73274 | 36020 ft | 480 kts | 147° |
| 2026-05-06 15:56 | 2.09417 | -50.66014 | 36023 ft | 490 kts | 148° |
| 2026-05-06 15:56 | 1.97772 | -50.58734 | 36004 ft | 491 kts | 148° |
| 2026-05-06 15:57 | 1.86288 | -50.51526 | 36000 ft | 482 kts | 148° |
| 2026-05-06 15:57 | 1.75005 | -50.44443 | 36008 ft | 477 kts | 147° |
| 2026-05-06 15:58 | 1.63806 | -50.37415 | 36023 ft | 481 kts | 147° |
| 2026-05-06 15:58 | 1.52318 | -50.30206 | 36021 ft | 490 kts | 147° |
| 2026-05-06 15:59 | 1.40706 | -50.22921 | 36007 ft | 489 kts | 147° |
| 2026-05-06 15:59 | 1.29361 | -50.15805 | 36000 ft | 481 kts | 148° |
| 2026-05-06 16:00 | 1.18039 | -50.08703 | 36007 ft | 477 kts | 148° |
| 2026-05-06 16:00 | 1.06855 | -50.01688 | 36016 ft | 477 kts | 148° |
| 2026-05-06 16:01 | 0.95480 | -49.94554 | 36014 ft | 487 kts | 148° |
| 2026-05-06 16:01 | 0.83896 | -49.87290 | 36004 ft | 492 kts | 148° |
| 2026-05-06 16:02 | 0.72426 | -49.80098 | 35992 ft | 485 kts | 148° |
| 2026-05-06 16:02 | 0.61068 | -49.72976 | 35993 ft | 478 kts | 148° |
| 2026-05-06 16:03 | 0.49842 | -49.65938 | 36017 ft | 481 kts | 148° |
| 2026-05-06 16:03 | 0.38360 | -49.58739 | 36016 ft | 490 kts | 148° |
| 2026-05-06 16:04 | 0.26773 | -49.51475 | 35997 ft | 490 kts | 148° |
| 2026-05-06 16:04 | 0.15323 | -49.44297 | 35990 ft | 479 kts | 148° |
| 2026-05-06 16:05 | 0.04161 | -49.37300 | 35990 ft | 473 kts | 148° |
| 2026-05-06 16:05 | -0.07110 | -49.30233 | 36010 ft | 483 kts | 148° |
| 2026-05-06 16:06 | -0.18580 | -49.23043 | 36000 ft | 492 kts | 148° |
| 2026-05-06 16:06 | -0.30179 | -49.15771 | 35980 ft | 488 kts | 148° |
| 2026-05-06 16:07 | -0.41553 | -49.08640 | 35981 ft | 479 kts | 148° |
| 2026-05-06 16:07 | -0.52618 | -49.01703 | 35992 ft | 477 kts | 148° |
| 2026-05-06 16:08 | -0.63974 | -48.94582 | 35989 ft | 488 kts | 148° |
| 2026-05-06 16:08 | -0.75537 | -48.87330 | 35996 ft | 492 kts | 148° |
| 2026-05-06 16:09 | -0.86974 | -48.80159 | 35977 ft | 484 kts | 148° |
| 2026-05-06 16:09 | -0.98229 | -48.73102 | 35983 ft | 475 kts | 148° |
| 2026-05-06 16:10 | -1.09364 | -48.66119 | 36004 ft | 481 kts | 148° |
| 2026-05-06 16:10 | -1.20890 | -48.58888 | 35980 ft | 491 kts | 148° |
| 2026-05-06 16:11 | -1.32482 | -48.51615 | 35954 ft | 487 kts | 148° |
| 2026-05-06 16:11 | -1.44605 | -48.46270 | 35989 ft | 477 kts | 166° |
| 2026-05-06 16:12 | -1.57486 | -48.43175 | 36003 ft | 477 kts | 166° |
| 2026-05-06 16:12 | -1.70541 | -48.39957 | 35985 ft | 485 kts | 166° |
| 2026-05-06 16:13 | -1.81214 | -48.37315 | 35991 ft | 488 kts | 166° |
| 2026-05-06 16:13 | -1.84823 | -48.36422 | 35986 ft | 486 kts | 166° |
| 2026-05-06 16:14 | -1.96598 | -48.33509 | 35963 ft | 477 kts | 166° |
| 2026-05-06 16:14 | -2.09430 | -48.30328 | 35979 ft | 476 kts | 166° |
| 2026-05-06 16:15 | -2.21157 | -48.27403 | 36036 ft | 484 kts | 166° |
| 2026-05-06 16:15 | -2.24439 | -48.26585 | 36176 ft | 485 kts | 166° |
| 2026-05-06 16:15 | -2.27703 | -48.25772 | 36433 ft | 482 kts | 166° |
| 2026-05-06 16:16 | -2.30959 | -48.24960 | 36550 ft | 484 kts | 166° |
| 2026-05-06 16:16 | -2.34242 | -48.24142 | 36588 ft | 487 kts | 166° |
| 2026-05-06 16:16 | -2.37534 | -48.23322 | 36690 ft | 489 kts | 166° |
| 2026-05-06 16:16 | -2.40808 | -48.22506 | 36831 ft | 489 kts | 166° |
| 2026-05-06 16:17 | -2.49187 | -48.20417 | 36977 ft | 482 kts | 166° |
| 2026-05-06 16:17 | -2.62106 | -48.17195 | 36969 ft | 474 kts | 166° |
| 2026-05-06 16:18 | -2.68225 | -48.15000 | 36986 ft | 475 kts | 153° |
| 2026-05-06 16:18 | -2.73765 | -48.11243 | 36974 ft | 480 kts | 140° |
| 2026-05-06 16:18 | -2.82338 | -48.03707 | 36975 ft | 488 kts | 139° |
| 2026-05-06 16:19 | -2.92668 | -47.94731 | 36953 ft | 495 kts | 140° |
| 2026-05-06 16:19 | -3.02112 | -47.86580 | 36981 ft | 486 kts | 140° |
| 2026-05-06 16:20 | -3.12247 | -47.77823 | 36939 ft | 479 kts | 140° |
| 2026-05-06 16:20 | -3.21185 | -47.70098 | 36971 ft | 485 kts | 140° |
| 2026-05-06 16:21 | -3.31504 | -47.61178 | 36975 ft | 494 kts | 140° |
| 2026-05-06 16:21 | -3.41851 | -47.52229 | 36988 ft | 485 kts | 140° |
| 2026-05-06 16:22 | -3.49574 | -47.45547 | 37003 ft | 484 kts | 140° |
| 2026-05-06 16:22 | -3.58834 | -47.37166 | 36986 ft | 485 kts | 137° |
| 2026-05-06 16:23 | -3.68670 | -47.27827 | 36960 ft | 487 kts | 138° |
| 2026-05-06 16:23 | -3.78564 | -47.18541 | 36963 ft | 487 kts | 139° |
| 2026-05-06 16:24 | -3.88459 | -47.09244 | 36958 ft | 488 kts | 138° |
| 2026-05-06 16:24 | -3.98303 | -46.99991 | 36963 ft | 488 kts | 139° |
| 2026-05-06 16:25 | -4.08206 | -46.90677 | 36953 ft | 487 kts | 138° |
| 2026-05-06 16:25 | -4.18070 | -46.81391 | 36966 ft | 486 kts | 138° |
| 2026-05-06 16:26 | -4.27938 | -46.72104 | 36955 ft | 485 kts | 138° |
| 2026-05-06 16:26 | -4.37772 | -46.62843 | 36951 ft | 484 kts | 139° |
| 2026-05-06 16:27 | -4.46278 | -46.54829 | 36964 ft | 484 kts | 139° |
| 2026-05-06 16:27 | -4.53339 | -46.48174 | 36977 ft | 483 kts | 139° |
| 2026-05-06 16:28 | -4.61000 | -46.40951 | 36927 ft | 484 kts | 139° |
| 2026-05-06 16:28 | -4.70802 | -46.31707 | 36988 ft | 484 kts | 139° |
| 2026-05-06 16:29 | -4.80635 | -46.22424 | 36961 ft | 486 kts | 139° |
| 2026-05-06 16:29 | -4.90486 | -46.13117 | 36964 ft | 486 kts | 139° |
| 2026-05-06 16:30 | -4.97020 | -46.06943 | 36953 ft | 487 kts | 139° |
| 2026-05-06 16:30 | -5.10185 | -45.94495 | 36965 ft | 488 kts | 139° |
| 2026-05-06 16:31 | -5.20095 | -45.85097 | 36951 ft | 489 kts | 139° |
| 2026-05-06 16:31 | -5.29977 | -45.75677 | 36954 ft | 490 kts | 139° |
| 2026-05-06 16:32 | -5.39881 | -45.66238 | 36944 ft | 489 kts | 139° |
| 2026-05-06 16:32 | -5.48085 | -45.58416 | 36957 ft | 489 kts | 139° |
| 2026-05-06 16:33 | -5.59563 | -45.47467 | 36946 ft | 489 kts | 139° |
| 2026-05-06 16:34 | -5.72679 | -45.34949 | 36955 ft | 488 kts | 139° |
| 2026-05-06 16:34 | -5.82521 | -45.25548 | 36947 ft | 488 kts | 139° |
| 2026-05-06 16:35 | -5.92369 | -45.16136 | 36950 ft | 488 kts | 139° |
| 2026-05-06 16:35 | -6.03894 | -45.05136 | 36952 ft | 488 kts | 139° |
| 2026-05-06 16:36 | -6.12082 | -44.97314 | 36950 ft | 488 kts | 139° |
| 2026-05-06 16:36 | -6.21854 | -44.87972 | 36957 ft | 487 kts | 139° |
| 2026-05-06 16:37 | -6.31664 | -44.78601 | 36952 ft | 486 kts | 140° |
| 2026-05-06 16:37 | -6.41817 | -44.69590 | 36961 ft | 485 kts | 141° |
| 2026-05-06 16:38 | -6.51957 | -44.60590 | 36972 ft | 486 kts | 141° |
| 2026-05-06 16:38 | -6.62012 | -44.51616 | 36962 ft | 486 kts | 141° |
| 2026-05-06 16:39 | -6.72135 | -44.42581 | 36965 ft | 486 kts | 141° |
| 2026-05-06 16:39 | -6.82257 | -44.33542 | 36963 ft | 486 kts | 141° |
| 2026-05-06 16:40 | -6.92365 | -44.24508 | 36961 ft | 486 kts | 141° |
| 2026-05-06 16:40 | -7.02520 | -44.15433 | 36957 ft | 486 kts | 141° |
| 2026-05-06 16:41 | -7.12599 | -44.06427 | 36970 ft | 486 kts | 141° |
| 2026-05-06 16:41 | -7.22693 | -43.97400 | 36959 ft | 487 kts | 141° |
| 2026-05-06 16:42 | -7.32792 | -43.88363 | 36958 ft | 487 kts | 141° |
| 2026-05-06 16:42 | -7.42944 | -43.79293 | 36969 ft | 487 kts | 142° |
| 2026-05-06 16:43 | -7.53049 | -43.70254 | 36968 ft | 487 kts | 142° |
| 2026-05-06 16:43 | -7.63209 | -43.61159 | 36963 ft | 487 kts | 142° |
| 2026-05-06 16:44 | -7.73300 | -43.52118 | 36976 ft | 487 kts | 142° |
| 2026-05-06 16:44 | -7.83402 | -43.43059 | 36966 ft | 487 kts | 142° |
| 2026-05-06 16:45 | -7.93502 | -43.33985 | 36986 ft | 486 kts | 142° |
| 2026-05-06 16:45 | -8.03638 | -43.24871 | 36977 ft | 486 kts | 142° |
| 2026-05-06 16:46 | -8.13704 | -43.15815 | 36975 ft | 486 kts | 142° |
| 2026-05-06 16:46 | -8.23838 | -43.06691 | 36981 ft | 486 kts | 142° |
| 2026-05-06 16:47 | -8.33906 | -42.97620 | 36982 ft | 486 kts | 142° |
| 2026-05-06 16:47 | -8.39599 | -42.92488 | 36980 ft | 486 kts | 142° |
| 2026-05-06 16:48 | -8.44629 | -42.87952 | 36984 ft | 486 kts | 142° |
| 2026-05-06 16:48 | -8.49686 | -42.83390 | 36980 ft | 486 kts | 142° |
| 2026-05-06 16:49 | -8.54730 | -42.78837 | 36976 ft | 486 kts | 142° |
| 2026-05-06 16:49 | -8.59768 | -42.74289 | 36983 ft | 486 kts | 142° |
| 2026-05-06 16:50 | -8.64795 | -42.69749 | 36984 ft | 486 kts | 142° |
| 2026-05-06 16:50 | -8.69823 | -42.65206 | 36988 ft | 486 kts | 142° |
| 2026-05-06 16:51 | -8.74862 | -42.60651 | 36989 ft | 486 kts | 143° |
| 2026-05-06 16:51 | -8.79915 | -42.56082 | 36988 ft | 486 kts | 143° |
| 2026-05-06 16:52 | -8.84942 | -42.51534 | 36983 ft | 487 kts | 143° |
| 2026-05-06 16:52 | -8.89999 | -42.46957 | 36981 ft | 487 kts | 143° |
| 2026-05-06 16:53 | -8.95030 | -42.42403 | 36996 ft | 487 kts | 143° |
| 2026-05-06 16:53 | -9.00090 | -42.37819 | 36993 ft | 487 kts | 143° |
| 2026-05-06 16:54 | -9.05125 | -42.33255 | 36978 ft | 488 kts | 143° |
| 2026-05-06 16:54 | -9.10169 | -42.28680 | 36980 ft | 487 kts | 143° |
| 2026-05-06 16:55 | -9.15212 | -42.24104 | 36981 ft | 487 kts | 143° |
| 2026-05-06 16:55 | -9.20280 | -42.19503 | 36983 ft | 487 kts | 143° |
| 2026-05-06 16:56 | -9.25305 | -42.14940 | 36981 ft | 487 kts | 143° |
| 2026-05-06 16:56 | -9.30344 | -42.10362 | 36984 ft | 487 kts | 143° |
| 2026-05-06 16:57 | -9.35398 | -42.05769 | 36981 ft | 487 kts | 143° |
| 2026-05-06 16:57 | -9.40434 | -42.01191 | 36979 ft | 487 kts | 143° |
| 2026-05-06 16:58 | -9.45465 | -41.96615 | 36984 ft | 487 kts | 143° |
| 2026-05-06 16:58 | -9.50502 | -41.92030 | 36984 ft | 487 kts | 143° |
| 2026-05-06 16:59 | -9.55517 | -41.87465 | 36981 ft | 487 kts | 143° |
| 2026-05-06 16:59 | -9.60554 | -41.82878 | 36991 ft | 487 kts | 143° |
| 2026-05-06 17:00 | -9.65606 | -41.78275 | 36984 ft | 486 kts | 143° |
| 2026-05-06 17:00 | -9.70612 | -41.73711 | 36982 ft | 486 kts | 143° |
| 2026-05-06 17:01 | -9.75629 | -41.69137 | 36975 ft | 486 kts | 143° |
| 2026-05-06 17:01 | -9.80652 | -41.64554 | 36984 ft | 486 kts | 143° |
| 2026-05-06 17:02 | -9.85685 | -41.59959 | 36977 ft | 486 kts | 143° |
| 2026-05-06 17:02 | -9.90693 | -41.55394 | 36992 ft | 486 kts | 144° |
| 2026-05-06 17:03 | -9.99149 | -41.47703 | 36942 ft | 487 kts | 144° |
| 2026-05-06 17:03 | -10.06816 | -41.40701 | 37020 ft | 485 kts | 143° |
| 2026-05-06 17:04 | -10.14743 | -41.33393 | 37037 ft | 486 kts | 144° |
| 2026-05-06 17:04 | -10.24184 | -41.24796 | 37061 ft | 485 kts | 144° |
| 2026-05-06 17:05 | -10.30717 | -41.18832 | 36984 ft | 487 kts | 144° |
| 2026-05-06 17:05 | -10.39790 | -41.10536 | 37067 ft | 483 kts | 144° |
| 2026-05-06 17:06 | -10.47465 | -41.03514 | 37048 ft | 484 kts | 144° |
| 2026-05-06 17:06 | -10.55092 | -40.96513 | 37017 ft | 485 kts | 144° |
| 2026-05-06 17:06 | -10.58634 | -40.93260 | 37124 ft | 483 kts | 144° |
| 2026-05-06 17:07 | -10.62554 | -40.89659 | 37148 ft | 483 kts | 144° |
| 2026-05-06 17:07 | -10.67549 | -40.85074 | 37032 ft | 486 kts | 144° |
| 2026-05-06 17:08 | -10.72581 | -40.80461 | 37034 ft | 486 kts | 144° |
| 2026-05-06 17:08 | -10.77576 | -40.75880 | 37040 ft | 486 kts | 144° |
| 2026-05-06 17:09 | -10.82596 | -40.71273 | 37048 ft | 486 kts | 144° |
| 2026-05-06 17:09 | -10.87613 | -40.66667 | 37044 ft | 486 kts | 144° |
| 2026-05-06 17:10 | -10.92635 | -40.62050 | 37060 ft | 486 kts | 144° |
| 2026-05-06 17:10 | -10.97640 | -40.57447 | 37060 ft | 486 kts | 144° |
| 2026-05-06 17:11 | -11.02654 | -40.52833 | 37055 ft | 487 kts | 144° |
| 2026-05-06 17:11 | -11.07654 | -40.48229 | 37059 ft | 486 kts | 144° |
| 2026-05-06 17:12 | -11.12671 | -40.43603 | 37054 ft | 486 kts | 144° |
| 2026-05-06 17:12 | -11.17666 | -40.38989 | 37062 ft | 486 kts | 144° |
| 2026-05-06 17:13 | -11.22657 | -40.34376 | 37068 ft | 486 kts | 144° |
| 2026-05-06 17:13 | -11.27660 | -40.29750 | 37060 ft | 486 kts | 144° |
| 2026-05-06 17:14 | -11.32668 | -40.25118 | 37065 ft | 486 kts | 144° |
| 2026-05-06 17:14 | -11.37663 | -40.20488 | 37050 ft | 487 kts | 144° |
| 2026-05-06 17:15 | -11.42693 | -40.15818 | 37057 ft | 487 kts | 144° |
| 2026-05-06 17:15 | -11.47676 | -40.11189 | 37053 ft | 487 kts | 144° |
| 2026-05-06 17:16 | -11.52688 | -40.06530 | 37053 ft | 487 kts | 144° |
| 2026-05-06 17:16 | -11.57699 | -40.01870 | 37062 ft | 487 kts | 144° |
| 2026-05-06 17:17 | -11.62759 | -39.97250 | 37048 ft | 486 kts | 146° |
| 2026-05-06 17:17 | -11.67870 | -39.92816 | 37044 ft | 485 kts | 146° |
| 2026-05-06 17:18 | -11.73036 | -39.88353 | 37047 ft | 485 kts | 146° |
| 2026-05-06 17:18 | -11.78123 | -39.83921 | 36770 ft | 483 kts | 146° |
| 2026-05-06 17:18 | -11.80712 | -39.81658 | 36122 ft | 483 kts | 145° |
| 2026-05-06 17:19 | -11.83235 | -39.79450 | 35384 ft | 484 kts | 145° |
| 2026-05-06 17:19 | -11.85796 | -39.77209 | 34538 ft | 486 kts | 144° |
| 2026-05-06 17:19 | -11.88372 | -39.74954 | 33598 ft | 489 kts | 144° |
| 2026-05-06 17:19 | -11.90963 | -39.72686 | 32623 ft | 492 kts | 144° |
| 2026-05-06 17:20 | -11.93569 | -39.70404 | 31683 ft | 493 kts | 143° |
| 2026-05-06 17:20 | -11.96186 | -39.68110 | 30716 ft | 496 kts | 142° |
| 2026-05-06 17:20 | -11.98777 | -39.65836 | 30009 ft | 479 kts | 142° |
| 2026-05-06 17:20 | -12.00440 | -39.64373 | 29514 ft | 473 kts | 142° |
| 2026-05-06 17:21 | -12.03744 | -39.61472 | 28590 ft | 470 kts | 142° |
| 2026-05-06 17:21 | -12.06223 | -39.59298 | 27936 ft | 467 kts | 142° |
| 2026-05-06 17:21 | -12.08680 | -39.57144 | 27305 ft | 464 kts | 142° |
| 2026-05-06 17:21 | -12.11129 | -39.54996 | 26683 ft | 462 kts | 142° |
| 2026-05-06 17:22 | -12.13543 | -39.52878 | 26066 ft | 459 kts | 141° |
| 2026-05-06 17:22 | -12.15148 | -39.51469 | 25646 ft | 458 kts | 141° |
| 2026-05-06 17:22 | -12.17575 | -39.49338 | 25016 ft | 456 kts | 141° |
| 2026-05-06 17:22 | -12.20766 | -39.46534 | 24191 ft | 455 kts | 141° |
| 2026-05-06 17:23 | -12.22354 | -39.45139 | 23776 ft | 454 kts | 141° |
| 2026-05-06 17:23 | -12.24758 | -39.43028 | 23066 ft | 453 kts | 141° |
| 2026-05-06 17:23 | -12.27140 | -39.40933 | 22406 ft | 450 kts | 141° |
| 2026-05-06 17:23 | -12.29508 | -39.38850 | 21786 ft | 447 kts | 141° |
| 2026-05-06 17:24 | -12.31860 | -39.36782 | 21173 ft | 444 kts | 140° |
| 2026-05-06 17:24 | -12.34196 | -39.34728 | 20576 ft | 441 kts | 140° |
| 2026-05-06 17:24 | -12.36510 | -39.32690 | 19978 ft | 438 kts | 141° |
| 2026-05-06 17:24 | -12.38799 | -39.30675 | 19373 ft | 436 kts | 140° |
| 2026-05-06 17:25 | -12.41104 | -39.28647 | 18777 ft | 434 kts | 140° |
| 2026-05-06 17:25 | -12.43366 | -39.26656 | 18161 ft | 432 kts | 140° |
| 2026-05-06 17:25 | -12.45653 | -39.24653 | 17499 ft | 430 kts | 140° |
| 2026-05-06 17:25 | -12.47894 | -39.22703 | 16914 ft | 425 kts | 140° |
| 2026-05-06 17:26 | -12.50057 | -39.20821 | 16318 ft | 396 kts | 140° |
| 2026-05-06 17:26 | -12.52146 | -39.19003 | 15803 ft | 395 kts | 140° |
| 2026-05-06 17:26 | -12.54244 | -39.17177 | 15247 ft | 394 kts | 139° |
| 2026-05-06 17:26 | -12.56330 | -39.15359 | 14683 ft | 394 kts | 139° |
| 2026-05-06 17:27 | -12.58416 | -39.13540 | 14138 ft | 394 kts | 139° |
| 2026-05-06 17:27 | -12.60503 | -39.11719 | 13547 ft | 393 kts | 139° |
| 2026-05-06 17:27 | -12.62557 | -39.09926 | 12970 ft | 392 kts | 139° |
| 2026-05-06 17:27 | -12.64626 | -39.08119 | 12486 ft | 388 kts | 139° |
| 2026-05-06 17:28 | -12.66679 | -39.06327 | 11945 ft | 385 kts | 139° |
| 2026-05-06 17:28 | -12.68646 | -39.04609 | 11359 ft | 361 kts | 138° |
| 2026-05-06 17:28 | -12.70465 | -39.03025 | 11108 ft | 329 kts | 137° |
| 2026-05-06 17:28 | -12.72186 | -39.01522 | 10941 ft | 319 kts | 137° |
| 2026-05-06 17:29 | -12.73858 | -39.00056 | 10791 ft | 311 kts | 137° |
| 2026-05-06 17:29 | -12.75467 | -38.98645 | 10655 ft | 304 kts | 138° |
| 2026-05-06 17:29 | -12.77049 | -38.97259 | 10538 ft | 296 kts | 137° |
| 2026-05-06 17:29 | -12.78599 | -38.95900 | 10403 ft | 289 kts | 138° |
| 2026-05-06 17:30 | -12.80110 | -38.94575 | 10288 ft | 282 kts | 138° |
| 2026-05-06 17:30 | -12.81578 | -38.93288 | 10169 ft | 274 kts | 137° |
| 2026-05-06 17:30 | -12.83009 | -38.92033 | 10042 ft | 267 kts | 137° |
| 2026-05-06 17:30 | -12.84427 | -38.90790 | 9746 ft | 267 kts | 137° |
| 2026-05-06 17:31 | -12.85830 | -38.89550 | 9431 ft | 264 kts | 135° |
| 2026-05-06 17:31 | -12.86869 | -38.88047 | 9134 ft | 256 kts | 111° |
| 2026-05-06 17:31 | -12.87452 | -38.86363 | 8866 ft | 253 kts | 109° |
| 2026-05-06 17:31 | -12.88039 | -38.84660 | 8588 ft | 253 kts | 109° |
| 2026-05-06 17:32 | -12.88635 | -38.82945 | 8285 ft | 257 kts | 109° |
| 2026-05-06 17:32 | -12.89237 | -38.81209 | 8027 ft | 259 kts | 109° |
| 2026-05-06 17:32 | -12.89533 | -38.80359 | 7872 ft | 259 kts | 109° |
| 2026-05-06 17:53 | -12.90124 | -38.78657 | 7571 ft | 258 kts | 109° |
| 2026-05-06 17:53 | -12.90529 | -38.77492 | 7381 ft | 257 kts | 110° |
| 2026-05-06 17:58 | -12.90849 | -38.76571 | 7224 ft | 257 kts | 110° |
| 2026-05-06 17:59 | -12.91238 | -38.75453 | 7030 ft | 256 kts | 110° |
| 2026-05-06 18:07 | -12.91679 | -38.74187 | 6812 ft | 256 kts | 110° |
| 2026-05-06 18:08 | -12.92280 | -38.72459 | 6458 ft | 256 kts | 109° |
| 2026-05-06 18:08 | -12.92875 | -38.70746 | 6074 ft | 258 kts | 110° |
| 2026-05-06 18:08 | -12.93477 | -38.69014 | 5684 ft | 259 kts | 110° |
| 2026-05-06 18:08 | -12.94088 | -38.67259 | 5294 ft | 260 kts | 110° |
| 2026-05-06 18:09 | -12.94692 | -38.65524 | 4920 ft | 260 kts | 110° |
| 2026-05-06 18:09 | -12.95282 | -38.63827 | 4994 ft | 243 kts | 110° |
| 2026-05-06 18:09 | -12.95828 | -38.62255 | 4998 ft | 229 kts | 110° |
| 2026-05-06 18:09 | -12.96075 | -38.61536 | 4999 ft | 221 kts | 108° |
| 2026-05-06 18:19 | -12.96157 | -38.61260 | 4997 ft | 217 kts | 104° |
| 2026-05-06 18:19 | -12.96218 | -38.59713 | 4964 ft | 226 kts | 86° |
| 2026-05-06 18:19 | -12.96005 | -38.58084 | 4701 ft | 230 kts | 83° |
| 2026-05-06 18:19 | -12.95710 | -38.56469 | 4351 ft | 230 kts | 81° |
| 2026-05-06 18:20 | -12.95392 | -38.54878 | 4031 ft | 221 kts | 81° |
| 2026-05-06 18:20 | -12.95093 | -38.53397 | 3745 ft | 204 kts | 81° |
| 2026-05-06 18:20 | -12.94815 | -38.52018 | 3507 ft | 190 kts | 82° |
| 2026-05-06 18:20 | -12.94550 | -38.50700 | 3313 ft | 194 kts | 82° |
| 2026-05-06 18:21 | -12.94275 | -38.49303 | 3050 ft | 206 kts | 82° |
| 2026-05-06 18:21 | -12.93982 | -38.47838 | 2762 ft | 208 kts | 82° |
| 2026-05-06 18:21 | -12.93695 | -38.46423 | 2440 ft | 192 kts | 82° |
| 2026-05-06 18:21 | -12.93444 | -38.45180 | 2264 ft | 167 kts | 84° |
| 2026-05-06 18:22 | -12.93211 | -38.44004 | 2066 ft | 170 kts | 84° |
| 2026-05-06 18:22 | -12.92977 | -38.42837 | 1807 ft | 163 kts | 84° |
| 2026-05-06 18:22 | -12.92762 | -38.41702 | 1629 ft | 165 kts | 84° |
| 2026-05-06 18:22 | -12.92523 | -38.40554 | 1373 ft | 162 kts | 82° |
| 2026-05-06 18:23 | -12.92290 | -38.39506 | 1191 ft | 141 kts | 83° |
| 2026-05-06 18:23 | -12.92093 | -38.38497 | 953 ft | 149 kts | 84° |
| 2026-05-06 18:23 | -12.91914 | -38.37459 | 818 ft | 144 kts | 84° |
| 2026-05-06 18:23 | -12.91704 | -38.36450 | 635 ft | 147 kts | 79° |
| 2026-05-06 18:24 | -12.91482 | -38.35418 | 424 ft | 144 kts | 83° |
| 2026-05-06 18:24 | -12.91287 | -38.34437 | 247 ft | 140 kts | 81° |
| 2026-05-06 18:24 | -12.91094 | -38.33448 | 92 ft | 142 kts | 84° |
| 2026-05-06 18:24 | -12.90914 | -38.32540 | 52 ft | 110 kts | 78° |
| 2026-05-06 18:25 | -12.90805 | -38.32000 | 52 ft | 42 kts | 78° |
| 2026-05-06 18:25 | -12.90811 | -38.31730 | 49 ft | 34 kts | 144° |
| 2026-05-06 18:25 | -12.90926 | -38.31806 | 52 ft | 22 kts | 258° |
| 2026-05-06 18:25 | -12.90967 | -38.31996 | 53 ft | 37 kts | 258° |
| 2026-05-06 18:26 | -12.91028 | -38.32302 | 55 ft | 45 kts | 258° |
| 2026-05-06 18:26 | -12.91088 | -38.32604 | 52 ft | 41 kts | 260° |
| 2026-05-06 18:26 | -12.91139 | -38.32886 | 49 ft | 40 kts | 259° |
| 2026-05-06 18:26 | -12.91208 | -38.33109 | 48 ft | 24 kts | 214° |
| 2026-05-06 18:27 | -12.91368 | -38.33093 | 48 ft | 24 kts | 167° |
| 2026-05-06 18:27 | -12.91516 | -38.33123 | 48 ft | 24 kts | 230° |
| 2026-05-06 18:27 | -12.91619 | -38.33203 | 48 ft | 10 kts | 193° |
| 2026-05-06 18:27 | -12.91637 | -38.33207 | 48 ft | 0 kts | 194° |